X  Lukk Metar værinformasjon fra luftfart     ENRY Moss Airport, Rygge
Temperatur
-7°C Temperatur
-9°C Duggpunkt
86% Luftfuktighet



Vind
2 M/S
5 MPT
8 KM/T
4 KNP



360°
N
Nåværende forhold

Klart Klart
Trykk 1009.92 (hPa) - 29.82 (inHg)
Sikt 1.2 (mil) - 2 (km)
Flyplass
Flyplass-kode ENRY

Plassering: Moss Airport, Rygge
Avstand: 12 (km)

Metar:
ENRY 070620Z AUTO 36004KT 0500NDV R12/P2000N R30/P2000D NCD M07/M09 Q1010

Tid: 07-12-2022 07:20 CET